Time;durP1;ratioP1;P1;durP2;ratioP2;P2;SDS_P1;SDS_P2;PMS_P1;PMS_P2;Temp;Humidity;BMP_temperature;BMP_pressure;BME280_temperature;BME280_humidity;BME280_pressure;Samples;Min_cycle;Max_cycle;Signal;HPM_P1;HPM_P2
2021/12/07 00:01:32;;;;;;;45.17;26.92;;;;;;;;;;5012423;28;20781;-74
2021/12/07 00:03:58;;;;;;;46.85;26.70;;;;;;;;;;5008513;28;20457;-74
2021/12/07 00:06:24;;;;;;;45.10;26.60;;;;;;;;;;5025163;28;20787;-74
2021/12/07 00:08:54;;;;;;;44.45;25.90;;;;;;;;;;5008478;28;20432;-75
2021/12/07 00:11:22;;;;;;;49.10;28.27;;;;;;;;;;5026046;28;20799;-75
2021/12/07 00:13:48;;;;;;;52.10;29.50;;;;;;;;;;5024871;28;20446;-74
2021/12/07 00:16:14;;;;;;;51.38;29.42;;;;;;;;;;5026136;28;20419;-74
2021/12/07 00:18:41;;;;;;;52.17;28.35;;;;;;;;;;5025246;28;20486;-74
2021/12/07 00:21:08;;;;;;;59.03;30.20;;;;;;;;;;5025356;28;20441;-74
2021/12/07 00:23:35;;;;;;;55.70;30.60;;;;;;;;;;5026874;28;20501;-74
2021/12/07 00:26:01;;;;;;;56.50;29.93;;;;;;;;;;5013174;28;20454;-74
2021/12/07 00:28:27;;;;;;;55.38;29.95;;;;;;;;;;5025295;28;20819;-74
2021/12/07 00:30:55;;;;;;;63.85;31.40;;;;;;;;;;5026969;28;20429;-74
2021/12/07 00:35:51;;;;;;;59.35;30.92;;;;;;;;;;5028831;28;20993;-74
2021/12/07 00:38:19;;;;;;;60.17;32.57;;;;;;;;;;5028191;28;20425;-74
2021/12/07 00:40:47;;;;;;;62.58;31.77;;;;;;;;;;5028852;28;20431;-74
2021/12/07 00:43:14;;;;;;;59.85;30.92;;;;;;;;;;5028290;28;20431;-74
2021/12/07 00:45:43;;;;;;;60.42;32.60;;;;;;;;;;5028561;28;20427;-74
2021/12/07 00:48:09;;;;;;;65.73;31.60;;;;;;;;;;5027953;28;20496;-74
2021/12/07 00:50:37;;;;;;;68.32;33.45;;;;;;;;;;5028675;28;20497;-74
2021/12/07 00:53:05;;;;;;;65.53;33.05;;;;;;;;;;5028103;28;20419;-74
2021/12/07 00:55:34;;;;;;;60.77;32.43;;;;;;;;;;5012337;28;20787;-74
2021/12/07 00:58:06;;;;;;;59.45;31.80;;;;;;;;;;5028278;28;20506;-74
2021/12/07 01:00:32;;;;;;;59.05;31.50;;;;;;;;;;5028785;28;20439;-74
2021/12/07 01:02:59;;;;;;;64.78;32.13;;;;;;;;;;5028125;28;21181;-74
2021/12/07 01:05:30;;;;;;;60.28;32.35;;;;;;;;;;5012194;28;20520;-74
2021/12/07 01:27:04;;;;;;;48.47;27.55;;;;;;;;;;5008235;28;20460;-74
2021/12/07 01:29:30;;;;;;;47.33;27.70;;;;;;;;;;5008176;28;20433;-74
2021/12/07 01:32:11;;;;;;;48.50;28.23;;;;;;;;;;5008534;28;20423;-73
2021/12/07 01:37:36;;;;;;;45.73;27.00;;;;;;;;;;5006845;28;21030;-73
2021/12/07 01:47:48;;;;;;;39.57;24.80;;;;;;;;;;5007916;28;20437;-73
2021/12/07 01:51:02;;;;;;;41.97;26.37;;;;;;;;;;5007479;28;20455;-73
2021/12/07 02:01:06;;;;;;;40.88;26.25;;;;;;;;;;5008043;28;20463;-73
2021/12/07 02:03:32;;;;;;;42.47;25.15;;;;;;;;;;5007483;28;20948;-73
2021/12/07 02:05:58;;;;;;;42.07;25.23;;;;;;;;;;5014555;28;20448;-73
2021/12/07 02:08:25;;;;;;;42.15;24.92;;;;;;;;;;5030281;28;20425;-73
2021/12/07 02:10:55;;;;;;;41.35;25.02;;;;;;;;;;5030372;28;20509;-73
2021/12/07 02:14:05;;;;;;;40.38;24.55;;;;;;;;;;5030753;28;20456;-74
2021/12/07 02:16:09;;;;;;;40.43;23.90;;;;;;;;;;5030566;28;20497;-73
2021/12/07 02:18:35;;;;;;;36.83;22.75;;;;;;;;;;5029822;28;20418;-73
2021/12/07 02:21:15;;;;;;;38.80;23.42;;;;;;;;;;5029715;28;20908;-73
2021/12/07 02:23:41;;;;;;;36.75;21.90;;;;;;;;;;5028541;27;20422;-74
2021/12/07 02:26:07;;;;;;;35.63;21.60;;;;;;;;;;5028826;28;20496;-73
2021/12/07 02:28:38;;;;;;;36.35;21.15;;;;;;;;;;5018679;28;20429;-73
2021/12/07 02:31:04;;;;;;;55.42;23.48;;;;;;;;;;5030592;28;20917;-73
2021/12/07 02:33:31;;;;;;;38.38;23.23;;;;;;;;;;5029763;28;20933;-73
2021/12/07 02:35:57;;;;;;;35.03;20.88;;;;;;;;;;5051337;27;20425;-73
2021/12/07 02:38:23;;;;;;;33.90;21.10;;;;;;;;;;5030170;28;20433;-73
2021/12/07 02:40:50;;;;;;;32.17;19.67;;;;;;;;;;5012485;28;20472;-73
2021/12/07 02:43:16;;;;;;;33.65;20.23;;;;;;;;;;5030268;28;20452;-73
2021/12/07 02:45:42;;;;;;;34.20;20.42;;;;;;;;;;5013229;27;20417;-73
2021/12/07 02:48:08;;;;;;;35.80;19.57;;;;;;;;;;5020181;28;20628;-73
2021/12/07 02:50:34;;;;;;;30.33;18.63;;;;;;;;;;5030197;28;20421;-74
2021/12/07 02:53:01;;;;;;;30.50;17.42;;;;;;;;;;5060352;27;20445;-73
2021/12/07 02:55:27;;;;;;;31.52;18.15;;;;;;;;;;5030097;28;20426;-73
2021/12/07 02:57:53;;;;;;;29.10;17.73;;;;;;;;;;5046870;28;20420;-72
2021/12/07 03:00:25;;;;;;;213.13;38.33;;;;;;;;;;5030131;28;20899;-72
2021/12/07 03:03:00;;;;;;;30.13;18.02;;;;;;;;;;5029314;28;20421;-72
2021/12/07 03:26:56;;;;;;;36.47;18.60;;;;;;;;;;5034391;28;20434;-73
2021/12/07 03:29:22;;;;;;;31.77;18.42;;;;;;;;;;5029075;28;20979;-72
2021/12/07 03:31:49;;;;;;;47.83;19.33;;;;;;;;;;5012803;28;20428;-73
2021/12/07 03:34:15;;;;;;;34.90;19.75;;;;;;;;;;5029916;28;20413;-72
2021/12/07 03:36:41;;;;;;;38.27;19.37;;;;;;;;;;5046828;28;20927;-72
2021/12/07 03:39:07;;;;;;;34.10;19.02;;;;;;;;;;5044651;28;20429;-73
2021/12/07 03:41:34;;;;;;;33.50;18.67;;;;;;;;;;5028968;28;20435;-72
2021/12/07 03:44:00;;;;;;;39.30;20.75;;;;;;;;;;5012865;28;20413;-73
2021/12/07 03:46:26;;;;;;;38.38;19.27;;;;;;;;;;5028990;28;20468;-73
2021/12/07 03:48:52;;;;;;;34.67;18.52;;;;;;;;;;5012550;28;20413;-73
2021/12/07 03:51:18;;;;;;;32.53;17.80;;;;;;;;;;5028781;28;20413;-73
2021/12/07 03:53:45;;;;;;;73.00;21.70;;;;;;;;;;5028951;28;20470;-73
2021/12/07 03:56:12;;;;;;;69.22;21.98;;;;;;;;;;5028221;28;20429;-72
2021/12/07 03:58:38;;;;;;;33.03;18.45;;;;;;;;;;5029035;28;20421;-72
2021/12/07 04:01:06;;;;;;;34.60;18.48;;;;;;;;;;5025857;27;20418;-73
2021/12/07 04:03:34;;;;;;;37.43;18.03;;;;;;;;;;5022634;28;20458;-73
2021/12/07 04:06:05;;;;;;;32.15;18.10;;;;;;;;;;5028299;28;20932;-73
2021/12/07 04:08:31;;;;;;;32.92;18.10;;;;;;;;;;5028745;27;20436;-72
2021/12/07 04:10:57;;;;;;;31.88;17.50;;;;;;;;;;5028622;28;20495;-72
2021/12/07 04:13:23;;;;;;;31.80;17.33;;;;;;;;;;5032502;28;20421;-72
2021/12/07 04:15:50;;;;;;;69.60;21.02;;;;;;;;;;5032657;28;20453;-72
2021/12/07 04:18:16;;;;;;;56.58;18.85;;;;;;;;;;5031822;28;20417;-72
2021/12/07 04:20:42;;;;;;;33.67;17.23;;;;;;;;;;5016203;28;20439;-72
2021/12/07 04:23:08;;;;;;;30.23;16.58;;;;;;;;;;5031629;28;20432;-72
2021/12/07 04:25:35;;;;;;;33.95;17.38;;;;;;;;;;5031964;27;20421;-72
2021/12/07 04:28:01;;;;;;;32.00;17.87;;;;;;;;;;5033324;27;20504;-72
2021/12/07 04:30:30;;;;;;;50.17;22.23;;;;;;;;;;5032237;28;20429;-72
2021/12/07 04:32:57;;;;;;;35.83;18.30;;;;;;;;;;5041848;27;20449;-72
2021/12/07 04:35:23;;;;;;;38.03;18.90;;;;;;;;;;5042054;27;20845;-72
2021/12/07 04:37:49;;;;;;;35.30;17.35;;;;;;;;;;5031158;28;20429;-72
2021/12/07 04:40:17;;;;;;;42.67;19.30;;;;;;;;;;5032705;28;20421;-73
2021/12/07 04:42:44;;;;;;;46.70;20.67;;;;;;;;;;5031065;28;20575;-72
2021/12/07 04:45:20;;;;;;;35.10;17.80;;;;;;;;;;5032160;28;20888;-72
2021/12/07 04:48:01;;;;;;;33.80;17.00;;;;;;;;;;5031261;28;20539;-72
2021/12/07 04:58:29;;;;;;;38.10;17.90;;;;;;;;;;5052861;27;20547;-71
2021/12/07 05:00:55;;;;;;;32.42;17.00;;;;;;;;;;5049003;28;20422;-71
2021/12/07 05:03:22;;;;;;;36.90;17.27;;;;;;;;;;5031142;28;20445;-71
2021/12/07 05:05:51;;;;;;;100.82;22.65;;;;;;;;;;5031487;28;20437;-71
2021/12/07 05:08:32;;;;;;;35.83;16.50;;;;;;;;;;5030079;27;20437;-71
2021/12/07 05:11:25;;;;;;;31.47;16.00;;;;;;;;;;5031861;28;20787;-71
2021/12/07 05:24:49;;;;;;;29.05;15.30;;;;;;;;;;5031551;27;20425;-71
2021/12/07 05:37:59;;;;;;;29.67;13.97;;;;;;;;;;5023803;28;20928;-71
2021/12/07 05:40:29;;;;;;;28.20;13.80;;;;;;;;;;5040205;27;20500;-71
2021/12/07 05:42:56;;;;;;;28.55;13.48;;;;;;;;;;5048411;28;20451;-71
2021/12/07 05:45:31;;;;;;;31.60;16.42;;;;;;;;;;5031298;28;20421;-71
2021/12/07 05:47:58;;;;;;;27.52;13.80;;;;;;;;;;5048875;27;20441;-72
2021/12/07 05:50:25;;;;;;;28.80;12.77;;;;;;;;;;5043837;27;20772;-72
2021/12/07 05:52:52;;;;;;;30.25;15.35;;;;;;;;;;5029795;28;20417;-72
2021/12/07 05:55:18;;;;;;;74.25;21.27;;;;;;;;;;5037137;27;20425;-72
2021/12/07 05:57:44;;;;;;;45.28;17.23;;;;;;;;;;5014251;28;20425;-72
2021/12/07 06:00:12;;;;;;;26.92;13.25;;;;;;;;;;5029497;28;20453;-72
2021/12/07 06:02:38;;;;;;;32.22;17.33;;;;;;;;;;5030745;28;20425;-72
2021/12/07 06:05:05;;;;;;;57.30;18.23;;;;;;;;;;5048425;27;20525;-73
2021/12/07 06:07:32;;;;;;;32.28;15.38;;;;;;;;;;5030872;28;20479;-72
2021/12/07 06:09:58;;;;;;;26.73;13.27;;;;;;;;;;5029327;28;20470;-72
2021/12/07 06:12:24;;;;;;;24.23;12.65;;;;;;;;;;5030236;28;20422;-72
2021/12/07 06:14:54;;;;;;;135.73;22.77;;;;;;;;;;5032509;27;20485;-72
2021/12/07 06:17:20;;;;;;;91.47;21.08;;;;;;;;;;5030194;28;20729;-72
2021/12/07 06:19:46;;;;;;;70.10;16.30;;;;;;;;;;5030566;28;20512;-72
2021/12/07 06:22:12;;;;;;;26.45;13.23;;;;;;;;;;5030341;28;20990;-72
2021/12/07 06:24:38;;;;;;;47.97;19.05;;;;;;;;;;5029881;28;20417;-72
2021/12/07 06:27:05;;;;;;;28.30;14.48;;;;;;;;;;5030029;28;20433;-72
2021/12/07 06:29:31;;;;;;;58.65;20.30;;;;;;;;;;5030003;28;20763;-72
2021/12/07 06:31:57;;;;;;;46.00;17.57;;;;;;;;;;5021451;28;20453;-72
2021/12/07 06:34:23;;;;;;;46.10;17.58;;;;;;;;;;5029660;28;20425;-72
2021/12/07 06:36:50;;;;;;;30.30;13.20;;;;;;;;;;5014075;28;20421;-72
2021/12/07 06:39:18;;;;;;;28.33;12.60;;;;;;;;;;5013602;28;20527;-72
2021/12/07 06:41:44;;;;;;;28.35;13.35;;;;;;;;;;5014038;28;20437;-72
2021/12/07 06:44:10;;;;;;;29.25;12.95;;;;;;;;;;5047339;28;20799;-72
2021/12/07 06:46:36;;;;;;;32.17;13.50;;;;;;;;;;5029475;28;20456;-73
2021/12/07 06:49:03;;;;;;;30.03;13.37;;;;;;;;;;5014083;28;20460;-73
2021/12/07 06:51:29;;;;;;;28.83;12.43;;;;;;;;;;5029137;28;20420;-73
2021/12/07 06:53:56;;;;;;;28.83;12.80;;;;;;;;;;5048082;27;20752;-73
2021/12/07 06:56:22;;;;;;;39.83;14.95;;;;;;;;;;5029420;28;20413;-73
2021/12/07 06:58:48;;;;;;;31.42;13.82;;;;;;;;;;5030222;28;20429;-73
2021/12/07 07:01:14;;;;;;;35.72;14.45;;;;;;;;;;5029984;28;20424;-74
2021/12/07 07:03:41;;;;;;;37.05;14.68;;;;;;;;;;5028846;28;20419;-74
2021/12/07 07:06:07;;;;;;;38.50;15.35;;;;;;;;;;5029230;28;20445;-74
2021/12/07 07:08:33;;;;;;;38.30;15.30;;;;;;;;;;5029129;28;21051;-74
2021/12/07 07:10:59;;;;;;;39.97;19.25;;;;;;;;;;5011954;28;20421;-75
2021/12/07 07:13:26;;;;;;;42.93;16.63;;;;;;;;;;5061189;28;20417;-74
2021/12/07 07:15:52;;;;;;;44.05;17.20;;;;;;;;;;5029303;28;20810;-71
2021/12/07 07:18:18;;;;;;;45.58;16.17;;;;;;;;;;5029746;27;20433;-71
2021/12/07 07:20:44;;;;;;;39.53;16.48;;;;;;;;;;5027720;28;20425;-71
2021/12/07 07:23:10;;;;;;;43.60;18.65;;;;;;;;;;5049552;27;20448;-71
2021/12/07 07:25:36;;;;;;;120.50;25.00;;;;;;;;;;5038564;28;20421;-72
2021/12/07 07:28:02;;;;;;;39.13;16.52;;;;;;;;;;5029449;28;20422;-72
2021/12/07 07:30:28;;;;;;;49.58;17.40;;;;;;;;;;5029508;28;20485;-72
2021/12/07 07:32:54;;;;;;;41.53;17.63;;;;;;;;;;5028659;27;20531;-72
2021/12/07 07:35:21;;;;;;;39.47;16.52;;;;;;;;;;5028390;28;20424;-72
2021/12/07 07:37:47;;;;;;;40.17;17.08;;;;;;;;;;5028390;28;20429;-72
2021/12/07 07:40:18;;;;;;;43.95;17.25;;;;;;;;;;5029297;28;20425;-72
2021/12/07 07:42:44;;;;;;;137.77;24.65;;;;;;;;;;5028738;28;20746;-72
2021/12/07 07:45:10;;;;;;;207.20;31.27;;;;;;;;;;5008899;28;20405;-72
2021/12/07 07:47:37;;;;;;;52.93;16.67;;;;;;;;;;5028969;28;20471;-72
2021/12/07 07:50:04;;;;;;;33.50;15.43;;;;;;;;;;5006188;28;20460;-72
2021/12/07 07:52:30;;;;;;;35.00;13.80;;;;;;;;;;5028491;28;20413;-72
2021/12/07 07:54:56;;;;;;;56.30;16.20;;;;;;;;;;5017431;28;20427;-72
2021/12/07 07:57:22;;;;;;;35.38;14.70;;;;;;;;;;5015253;28;20413;-72
2021/12/07 07:59:48;;;;;;;34.58;12.23;;;;;;;;;;5028914;28;20418;-73
2021/12/07 08:02:14;;;;;;;30.25;13.23;;;;;;;;;;5029008;28;20505;-73
2021/12/07 08:04:41;;;;;;;30.10;11.98;;;;;;;;;;4998169;28;20830;-73
2021/12/07 08:07:08;;;;;;;24.08;12.10;;;;;;;;;;5005535;28;20429;-72
2021/12/07 08:09:34;;;;;;;24.02;10.00;;;;;;;;;;5005872;28;20776;-73
2021/12/07 08:12:00;;;;;;;24.92;9.70;;;;;;;;;;4989624;28;20425;-73
2021/12/07 08:14:27;;;;;;;25.17;9.85;;;;;;;;;;5026560;28;20421;-73
2021/12/07 08:16:53;;;;;;;23.88;9.43;;;;;;;;;;5004780;28;20417;-73
2021/12/07 08:19:19;;;;;;;24.23;9.10;;;;;;;;;;5005313;28;21940;-73
2021/12/07 08:21:45;;;;;;;25.65;9.90;;;;;;;;;;5096424;28;21012;-72
2021/12/07 08:24:11;;;;;;;24.70;10.30;;;;;;;;;;5004510;28;20556;-72
2021/12/07 08:26:37;;;;;;;21.90;10.20;;;;;;;;;;5017079;28;20783;-72
2021/12/07 08:29:03;;;;;;;33.27;11.73;;;;;;;;;;5003826;28;20428;-72
2021/12/07 08:31:30;;;;;;;23.58;9.23;;;;;;;;;;5004499;28;20477;-72
2021/12/07 08:33:56;;;;;;;24.38;9.93;;;;;;;;;;5005478;28;20541;-72
2021/12/07 08:36:22;;;;;;;24.95;11.45;;;;;;;;;;5005251;28;20512;-72
2021/12/07 08:38:50;;;;;;;27.40;11.82;;;;;;;;;;4989081;28;20687;-72
2021/12/07 08:41:16;;;;;;;29.05;11.27;;;;;;;;;;5004518;28;20470;-73
2021/12/07 08:43:43;;;;;;;29.67;11.43;;;;;;;;;;4989460;28;20425;-72
2021/12/07 08:46:10;;;;;;;27.10;10.90;;;;;;;;;;5005277;28;20442;-73
2021/12/07 08:48:37;;;;;;;24.55;10.77;;;;;;;;;;5004891;28;20530;-73
2021/12/07 08:51:04;;;;;;;22.10;9.75;;;;;;;;;;5003877;28;20429;-73
2021/12/07 08:53:31;;;;;;;23.58;10.60;;;;;;;;;;4988543;28;20947;-73
2021/12/07 09:01:27;;;;;;;22.80;9.88;;;;;;;;;;5006975;28;20443;-72
2021/12/07 09:03:55;;;;;;;22.30;9.25;;;;;;;;;;5014423;28;20482;-73
2021/12/07 09:06:21;;;;;;;22.75;8.90;;;;;;;;;;5031385;28;20421;-73
2021/12/07 09:08:49;;;;;;;105.90;16.07;;;;;;;;;;5030268;28;20440;-73
2021/12/07 09:11:15;;;;;;;58.78;11.48;;;;;;;;;;5031787;28;20421;-73
2021/12/07 09:13:42;;;;;;;26.25;10.10;;;;;;;;;;5031231;28;20433;-73
2021/12/07 09:16:09;;;;;;;27.70;11.20;;;;;;;;;;5013629;28;20440;-73
2021/12/07 09:18:35;;;;;;;30.52;12.10;;;;;;;;;;5031230;28;20417;-73
2021/12/07 09:21:02;;;;;;;131.65;21.45;;;;;;;;;;5016204;28;20764;-73
2021/12/07 09:23:28;;;;;;;22.23;10.07;;;;;;;;;;5031136;28;20430;-73
2021/12/07 09:25:54;;;;;;;21.23;9.98;;;;;;;;;;5057948;27;20504;-73
2021/12/07 09:28:20;;;;;;;23.25;9.63;;;;;;;;;;5014616;28;20904;-73
2021/12/07 09:30:51;;;;;;;29.23;10.40;;;;;;;;;;5030017;27;20418;-72
2021/12/07 09:33:21;;;;;;;23.30;10.27;;;;;;;;;;5033622;28;20892;-73
2021/12/07 09:35:47;;;;;;;20.40;8.80;;;;;;;;;;5014394;28;20413;-73
2021/12/07 09:38:14;;;;;;;23.07;9.23;;;;;;;;;;5031971;28;20984;-73
2021/12/07 09:40:41;;;;;;;21.20;7.97;;;;;;;;;;5029858;27;20935;-73
2021/12/07 09:43:08;;;;;;;21.83;9.38;;;;;;;;;;5032694;28;20481;-72
2021/12/07 09:45:35;;;;;;;23.10;9.03;;;;;;;;;;5021439;28;20425;-71
2021/12/07 09:48:07;;;;;;;17.00;7.70;;;;;;;;;;5030529;28;20426;-73
2021/12/07 09:50:35;;;;;;;18.33;7.80;;;;;;;;;;5031172;28;20433;-72
2021/12/07 09:53:02;;;;;;;22.40;8.60;;;;;;;;;;5030690;28;20429;-72
2021/12/07 09:55:29;;;;;;;18.30;7.63;;;;;;;;;;5030674;28;20430;-72
2021/12/07 09:57:56;;;;;;;17.48;7.60;;;;;;;;;;5013479;28;20508;-72
2021/12/07 10:00:24;;;;;;;16.57;7.33;;;;;;;;;;5026653;28;20437;-72
2021/12/07 10:02:51;;;;;;;19.95;6.50;;;;;;;;;;5030119;28;20454;-72
2021/12/07 10:05:19;;;;;;;20.73;7.05;;;;;;;;;;5014284;28;20434;-72
2021/12/07 10:07:46;;;;;;;16.35;6.18;;;;;;;;;;5030278;28;20430;-71
2021/12/07 10:10:38;;;;;;;19.45;6.47;;;;;;;;;;5027912;28;20432;-72
2021/12/07 10:13:05;;;;;;;15.32;6.80;;;;;;;;;;5030029;27;20417;-72
2021/12/07 10:15:32;;;;;;;15.35;6.57;;;;;;;;;;5029516;28;20912;-72
2021/12/07 10:18:03;;;;;;;16.40;6.10;;;;;;;;;;5035823;27;20429;-71
2021/12/07 10:20:37;;;;;;;17.95;5.82;;;;;;;;;;5059833;27;20426;-72
2021/12/07 10:23:24;;;;;;;15.82;6.07;;;;;;;;;;5030097;27;20432;-72
2021/12/07 10:25:55;;;;;;;16.10;6.60;;;;;;;;;;5049786;27;20431;-72
2021/12/07 10:28:28;;;;;;;16.48;6.40;;;;;;;;;;5056947;28;20964;-72
2021/12/07 10:30:55;;;;;;;15.55;5.85;;;;;;;;;;5039361;28;20419;-72
2021/12/07 10:33:33;;;;;;;16.17;5.90;;;;;;;;;;5026622;28;20413;-73
2021/12/07 10:36:26;;;;;;;15.55;5.50;;;;;;;;;;5013323;28;20939;-73
2021/12/07 10:39:00;;;;;;;11.93;5.57;;;;;;;;;;5025126;28;20494;-74
2021/12/07 10:41:27;;;;;;;17.70;6.00;;;;;;;;;;5013559;28;20421;-72
2021/12/07 10:44:00;;;;;;;15.45;6.00;;;;;;;;;;5013172;28;20563;-72
2021/12/07 10:46:27;;;;;;;20.38;6.03;;;;;;;;;;5062552;27;20477;-72
2021/12/07 10:49:12;;;;;;;17.17;5.72;;;;;;;;;;5029503;27;20448;-72
2021/12/07 10:51:39;;;;;;;18.23;6.13;;;;;;;;;;5027885;28;20417;-72
2021/12/07 10:54:05;;;;;;;16.75;6.10;;;;;;;;;;5029934;28;20489;-72
2021/12/07 10:56:32;;;;;;;14.40;5.45;;;;;;;;;;5029676;28;20474;-72
2021/12/07 10:59:04;;;;;;;17.02;5.63;;;;;;;;;;5030151;28;20417;-71
2021/12/07 11:01:31;;;;;;;15.00;6.03;;;;;;;;;;5029517;28;20806;-72
2021/12/07 11:04:17;;;;;;;14.13;6.03;;;;;;;;;;5029556;28;20457;-72
2021/12/07 11:07:04;;;;;;;18.20;5.90;;;5.70;99.90;;;;;;5035547;28;20458;-72
2021/12/07 11:09:30;;;;;;;14.52;5.47;;;;;;;;;;5028957;28;20429;-72
2021/12/07 11:12:07;;;;;;;14.40;5.97;;;;;;;;;;5029420;28;20471;-72
2021/12/07 11:14:52;;;;;;;14.88;5.57;;;;;;;;;;5012155;28;20449;-72
2021/12/07 11:17:19;;;;;;;17.08;5.85;;;;;;;;;;5030237;27;20426;-74
2021/12/07 11:19:46;;;;;;;12.27;6.15;;;;;;;;;;5013423;28;20508;-72
2021/12/07 11:22:16;;;;;;;15.03;6.00;;;;;;;;;;5012857;28;20505;-74
2021/12/07 11:24:44;;;;;;;14.73;5.57;;;;;;;;;;5029020;28;21034;-72
2021/12/07 11:30:00;;;;;;;15.52;5.68;;;;;;;;;;5026940;27;20931;-73
2021/12/07 11:32:27;;;;;;;15.50;5.97;;;;;;;;;;5028878;28;20470;-73
2021/12/07 11:34:54;;;;;;;15.60;6.00;;;;;;;;;;5013215;28;20773;-72
2021/12/07 11:37:22;;;;;;;15.25;4.95;;;;;;;;;;5028519;28;20425;-72
2021/12/07 11:39:56;;;;;;;17.42;5.60;;;;;;;;;;5029236;28;20421;-72
2021/12/07 11:42:22;;;;;;;17.55;5.65;;;;;;;;;;5027905;28;20433;-72
2021/12/07 11:44:52;;;;;;;12.60;4.82;;;;;;;;;;5028883;28;20421;-71
2021/12/07 11:47:33;;;;;;;15.75;5.93;;;;;;;;;;5037767;28;20426;-71
2021/12/07 11:50:01;;;;;;;12.48;5.00;;;;;;;;;;5028387;28;20559;-72
2021/12/07 11:52:27;;;;;;;16.90;5.00;;;;;;;;;;5116521;27;20425;-73
2021/12/07 11:54:54;;;;;;;14.60;5.22;;;;;;;;;;5029696;28;20449;-73
2021/12/07 11:57:20;;;;;;;12.40;4.50;;;;;;;;;;5011332;28;20432;-73
2021/12/07 11:59:47;;;;;;;15.70;4.90;;;;;;;;;;5037478;28;20520;-73
2021/12/07 12:02:14;;;;;;;15.18;4.82;;;;;;;;;;5029208;28;20453;-73
2021/12/07 12:04:42;;;;;;;15.90;4.38;;;;;;;;;;5028048;28;20944;-73
2021/12/07 12:07:09;;;;;;;11.70;4.20;;;;;;;;;;5028340;28;20445;-74
2021/12/07 12:09:37;;;;;;;10.52;3.95;;;;;;;;;;5028414;28;20454;-73
2021/12/07 12:12:10;;;;;;;14.07;4.78;;;;;;;;;;5028448;28;20517;-73
2021/12/07 12:14:40;;;;;;;12.17;4.67;;;;;;;;;;5027636;28;20424;-73
2021/12/07 12:17:19;;;;;;;15.30;4.70;;;;;;;;;;5028614;28;20524;-73
2021/12/07 12:20:00;;;;;;;16.88;4.95;;;;;;;;;;5027071;28;20438;-72
2021/12/07 12:22:26;;;;;;;15.35;5.35;;;;;;;;;;5012562;28;20432;-72
2021/12/07 12:24:53;;;;;;;13.23;4.53;;;;;;;;;;5040251;27;20505;-72
2021/12/07 12:27:22;;;;;;;11.52;4.50;;;;;;;;;;5027117;28;20426;-72
2021/12/07 12:29:50;;;;;;;14.05;4.68;;;;;;;;;;5027270;28;20811;-74
2021/12/07 12:32:26;;;;;;;14.98;4.55;;;;;;;;;;5015584;28;20928;-74
2021/12/07 12:34:52;;;;;;;13.65;4.72;;;;;;;;;;5031151;27;20781;-74
2021/12/07 12:37:23;;;;;;;16.63;5.30;;;;;;;;;;5031674;28;20761;-74
2021/12/07 12:39:55;;;;;;;15.02;5.05;;;;;;;;;;5028903;28;20921;-74
2021/12/07 12:42:27;;;;;;;18.02;5.78;;;;;;;;;;5049810;28;20413;-74
2021/12/07 12:44:57;;;;;;;13.85;4.97;;;;;;;;;;5045324;27;20415;-73
2021/12/07 12:47:28;;;;;;;14.63;5.20;;;;;;;;;;5038704;27;20977;-72
2021/12/07 12:49:54;;;;;;;11.47;4.90;;;;;;;;;;5048128;27;20951;-73
2021/12/07 12:52:40;;;;;;;12.15;5.32;;;;;;;;;;5050315;27;20460;-73
2021/12/07 12:55:06;;;;;;;14.33;4.97;;;;;;;;;;5044527;27;20418;-74
2021/12/07 12:57:36;;;;;;;18.77;4.63;;;;;;;;;;5064291;27;20428;-74
2021/12/07 13:00:02;;;;;;;12.68;4.40;;;;;;;;;;5048563;27;20425;-74
2021/12/07 13:02:29;;;;;;;14.63;4.82;;;;;;;;;;5049327;28;20981;-75
2021/12/07 13:05:04;;;;;;;14.27;4.70;;;;;;;;;;5048190;28;20461;-75
2021/12/07 13:07:30;;;;;;;15.20;5.20;;;;;;;;;;5032263;28;20778;-74
2021/12/07 13:09:58;;;;;;;13.55;4.72;;;;;;;;;;5029884;27;20414;-74
2021/12/07 13:12:25;;;;;;;13.93;5.00;;;;;;;;;;5049604;27;20470;-76
2021/12/07 13:15:05;;;;;;;16.63;5.65;;;;;;;;;;5028152;28;20454;-75
2021/12/07 13:17:45;;;;;;;15.07;6.07;;;;;;;;;;5050905;27;20491;-76
2021/12/07 13:20:20;;;;;;;13.63;5.93;;;;;;;;;;5046893;27;20418;-75
2021/12/07 13:22:46;;;;;;;14.50;5.90;;;;;;;;;;5015069;28;20425;-76
2021/12/07 13:25:21;;;;;;;14.05;5.88;;;;;;;;;;5013656;27;20428;-73
2021/12/07 13:28:13;;;;;;;13.13;5.03;;;;;;;;;;5051736;27;20793;-74
2021/12/07 13:30:42;;;;;;;15.85;5.70;;;;;;;;;;5050200;27;20436;-74
2021/12/07 13:33:20;;;;;;;15.60;5.38;;;;;;;;;;5049272;28;20460;-74
2021/12/07 13:35:48;;;;;;;17.02;5.97;;;;;;;;;;5031300;28;20420;-74
2021/12/07 13:38:18;;;;;;;12.55;5.38;;;;;;;;;;5049048;28;20864;-75
2021/12/07 13:40:44;;;;;;;15.45;5.47;;;;;;;;;;5030992;28;20425;-74
2021/12/07 13:43:32;;;;;;;16.87;6.30;;;;;;;;;;5048850;27;20428;-76
2021/12/07 13:46:12;;;;;;;15.50;6.40;;;;;;;;;;5028502;28;20768;-75
2021/12/07 13:48:38;;;;;;;14.57;5.35;;;;;;;;;;5043308;27;20421;-75
2021/12/07 13:51:05;;;;;;;16.10;5.60;;;;;;;;;;5050410;27;20410;-75
2021/12/07 13:53:31;;;;;;;14.80;5.32;;;;;;;;;;5029185;28;20432;-75
2021/12/07 13:55:58;;;;;;;12.07;5.50;;;;;;;;;;5047843;27;20837;-75
2021/12/07 13:58:25;;;;;;;16.17;5.67;;;;;;;;;;5032663;28;20424;-75
2021/12/07 14:00:52;;;;;;;17.38;5.18;;;;;;;;;;5058504;27;20424;-76
2021/12/07 14:03:19;;;;;;;12.52;5.15;;;;;;;;;;5030916;27;20528;-76
2021/12/07 14:05:46;;;;;;;16.60;5.78;;;;;;;;;;5029774;28;20436;-77
2021/12/07 14:08:14;;;;;;;15.20;5.20;;;;;;;;;;5031712;27;20425;-76
2021/12/07 14:10:43;;;;;;;11.63;5.25;;;;;;;;;;5035729;27;21377;-76
2021/12/07 14:13:09;;;;;;;13.45;5.30;;;;;;;;;;5047798;27;20429;-75
2021/12/07 14:15:40;;;;;;;16.48;5.90;;;;;;;;;;5030276;28;20413;-76
2021/12/07 14:18:10;;;;;;;14.70;5.57;;;;;;;;;;5027068;27;20457;-75
2021/12/07 14:20:38;;;;;;;16.85;5.78;;;;;;;;;;5052637;27;20443;-76
2021/12/07 14:23:18;;;;;;;15.80;6.20;;;;;;;;;;5043952;27;20497;-76
2021/12/07 14:26:05;;;;;;;17.52;6.70;;;;;;;;;;5033191;27;20430;-74
2021/12/07 14:28:31;;;;;;;18.05;6.55;;;;;;;;;;5043009;27;20448;-75
2021/12/07 14:31:00;;;;;;;19.97;7.07;;;;;;;;;;5009039;27;21017;-75
2021/12/07 14:33:27;;;;;;;16.83;7.63;;;;;;;;;;5041611;27;20417;-75
2021/12/07 14:35:55;;;;;;;21.08;8.23;;;;;;;;;;5025181;27;20755;-75
2021/12/07 14:38:21;;;;;;;31.67;13.15;;;;;;;;;;5026897;27;20421;-76
2021/12/07 14:40:48;;;;;;;20.90;9.57;;;;;;;;;;5062368;27;20449;-74
2021/12/07 14:43:16;;;;;;;20.92;9.27;;;;;;;;;;5046461;27;20425;-74
2021/12/07 14:45:43;;;;;;;18.13;9.07;;;;;;;;;;5027435;27;20422;-74
2021/12/07 14:48:09;;;;;;;21.20;9.23;;;;;;;;;;5027801;27;20502;-74
2021/12/07 14:50:35;;;;;;;22.67;10.45;;;;;;;;;;5012243;27;20410;-78
2021/12/07 14:53:01;;;;;;;22.48;9.88;;;;;;;;;;5028812;27;20426;-74
2021/12/07 14:55:28;;;;;;;26.60;11.02;;;;;;;;;;5049778;27;20414;-76
2021/12/07 14:57:54;;;;;;;24.40;11.02;;;;;;;;;;5028344;27;20463;-75
2021/12/07 15:00:20;;;;;;;25.17;10.70;;;;;;;;;;5047024;27;20417;-75
2021/12/07 15:02:48;;;;;;;24.10;10.60;;;;;;;;;;5046714;27;20416;-75
2021/12/07 15:05:14;;;;;;;24.73;11.55;;;;;;;;;;5010461;28;20985;-76
2021/12/07 15:07:41;;;;;;;24.08;12.00;;;;;;;;;;5006941;28;20421;-74
2021/12/07 15:10:12;;;;;;;24.35;12.05;;;;;;;;;;5006117;28;20905;-74
2021/12/07 15:12:40;;;;;;;20.98;11.77;;;;;;;;;;4989942;28;20936;-73
2021/12/07 15:15:07;;;;;;;27.75;12.65;;;;;;;;;;4986125;28;20409;-73
2021/12/07 15:17:33;;;;;;;45.70;13.93;;;;;;;;;;5007273;28;20444;-76
2021/12/07 15:20:00;;;;;;;31.40;13.98;;;;;;;;;;5005871;28;20421;-73
2021/12/07 15:22:26;;;;;;;24.52;13.00;;;;;;;;;;5007070;28;20420;-74
2021/12/07 15:24:53;;;;;;;26.77;13.07;;;;;;;;;;5006133;28;20412;-75
2021/12/07 15:27:21;;;;;;;27.70;14.43;;;;;;;;;;5005748;28;20428;-75
2021/12/07 15:29:49;;;;;;;26.33;14.13;;;;;;;;;;5005984;28;20420;-75
2021/12/07 15:32:16;;;;;;;29.40;14.10;;;;;;;;;;5005581;28;20412;-75
2021/12/07 15:34:46;;;;;;;38.47;15.02;;;;;;;;;;4988861;28;20936;-75
2021/12/07 15:37:13;;;;;;;27.88;14.63;;;;;;;;;;4999907;28;20439;-76
2021/12/07 15:39:44;;;;;;;28.55;14.80;;;;;;;;;;5007255;28;20417;-75
2021/12/07 15:42:13;;;;;;;32.63;15.48;;;;;;;;;;5013857;28;20417;-75
2021/12/07 15:44:39;;;;;;;30.02;15.05;;;;;;;;;;5029357;28;20540;-75
2021/12/07 15:47:07;;;;;;;32.35;15.48;;;;;;;;;;5000694;28;20432;-75
2021/12/07 15:49:35;;;;;;;64.80;20.08;;;;;;;;;;5006959;28;20431;-75
2021/12/07 15:52:03;;;;;;;34.10;17.60;;;;;;;;;;5006929;28;20773;-75
2021/12/07 15:54:29;;;;;;;29.85;16.23;;;;;;;;;;5000217;28;20490;-75
2021/12/07 15:56:56;;;;;;;33.33;17.17;;;;;;;;;;5006245;28;20487;-76
2021/12/07 15:59:22;;;;;;;35.75;16.88;;;;;;;;;;5005532;28;20503;-75
2021/12/07 16:01:48;;;;;;;77.25;21.40;;;;;;;;;;5001108;28;20421;-76
2021/12/07 16:04:28;;;;;;;35.17;18.48;;;;;;;;;;5011169;28;20449;-76
2021/12/07 16:06:55;;;;;;;33.40;17.45;;;;;;;;;;5012008;28;20492;-75
2021/12/07 16:09:22;;;;;;;46.92;18.88;;;;;;;;;;5027536;28;20422;-75